Anadolu University Airport Eskisehir TR
ICAO: LTBY
IATA: AOE
Category: Medium
Scheduled Services: Yes

Elevation: 2588 ft
TransAlt. 10000 ft.

Airport Communications:
TWR:123.75

LTBY Zoom In..

If you have problems with the map follow the link
https://www.worldairports.se/pages/airport.php?
ICAO=LTBY

Runways:

(A) RW 09 length 9843 ft width 148 ft
ILS 110.30 / hdg 88

(B) RW 27 length 9843 ft width 148 ft
---- / hdg 268

Location; LTBY
Day. 22 / Time. 11.50 Zulu
* QNH: 1018
* Temperature: 16° c. 60.8°f.
* Wind from: 070° Speed 05 kn.
Dewpoint: 08° c.
Visibility: 10 km or more.
Clouds: Scattered 3500 ft.

LTBY 221150Z 07005KT 030V120 9999 SCT035 16/08 Q1018


Wind From 070°
Speed 05 kn.

 
 
jpsmedia.com for Web Design worldairports.se 2018   terms of use